createdAt,value
2022-09-13T00:00:46.432Z,13.10
2022-09-13T00:03:33.629Z,13.20
2022-09-13T00:06:23.066Z,13.20
2022-09-13T00:09:10.407Z,13.20
2022-09-13T00:11:57.618Z,13.20
2022-09-13T00:14:44.883Z,13.10
2022-09-13T00:17:31.975Z,13.10
2022-09-13T00:20:19.467Z,13.20
2022-09-13T00:23:07.841Z,13.20
2022-09-13T00:26:03.254Z,13.10
2022-09-13T00:28:52.097Z,13.00
2022-09-13T00:31:39.369Z,12.90
2022-09-13T00:34:26.909Z,12.90
2022-09-13T00:37:14.108Z,13.00
2022-09-13T00:40:03.008Z,13.10
2022-09-13T00:42:50.318Z,12.90
2022-09-13T00:45:38.476Z,13.00
2022-09-13T00:48:25.967Z,13.10
2022-09-13T00:51:13.295Z,13.20
2022-09-13T00:54:01.998Z,13.10
2022-09-13T00:56:54.914Z,13.10
2022-09-13T00:59:45.766Z,12.80
2022-09-13T01:02:33.191Z,12.90
2022-09-13T01:09:58.803Z,12.80
2022-09-13T01:12:53.069Z,12.80
2022-09-13T01:15:40.158Z,12.60
2022-09-13T01:18:27.221Z,12.60
2022-09-13T01:22:02.919Z,12.50
2022-09-13T01:25:18.623Z,12.60
2022-09-13T01:28:30.916Z,12.40
2022-09-13T01:31:27.158Z,12.40
2022-09-13T01:34:30.531Z,12.30
2022-09-13T01:37:34.173Z,12.30
2022-09-13T01:40:36.519Z,12.10
2022-09-13T01:43:33.565Z,12.10
2022-09-13T01:46:26.909Z,12.30
2022-09-13T01:49:20.354Z,12.10
2022-09-13T01:52:15.409Z,12.10
2022-09-13T01:55:09.953Z,12.10
2022-09-13T01:58:06.485Z,12.20
2022-09-13T02:01:01.532Z,12.10
2022-09-13T02:03:56.540Z,12.00
2022-09-13T02:06:50.152Z,11.90
2022-09-13T02:09:41.929Z,11.90
2022-09-13T02:12:32.906Z,11.90
2022-09-13T02:15:25.240Z,11.80
2022-09-13T02:18:18.129Z,11.80
2022-09-13T02:21:11.702Z,11.90
2022-09-13T02:24:02.983Z,11.70
2022-09-13T02:26:54.064Z,11.80
2022-09-13T02:29:43.788Z,11.70
2022-09-13T02:32:35.011Z,11.80
2022-09-13T02:35:27.343Z,11.70
2022-09-13T02:38:22.194Z,11.60
2022-09-13T02:41:16.889Z,11.80
2022-09-13T02:44:09.268Z,11.80
2022-09-13T02:47:07.908Z,11.80
2022-09-13T02:50:05.863Z,11.90
2022-09-13T02:53:03.738Z,11.90
2022-09-13T02:55:59.432Z,11.80
2022-09-13T02:58:50.949Z,11.80
2022-09-13T03:01:41.708Z,11.70
2022-09-13T03:04:29.689Z,11.80
2022-09-13T03:07:16.963Z,11.80
2022-09-13T03:10:09.532Z,12.00
2022-09-13T03:13:13.979Z,11.80
2022-09-13T03:16:10.179Z,11.80
2022-09-13T03:19:10.769Z,12.00
2022-09-13T03:22:14.622Z,12.20
2022-09-13T03:25:08.455Z,12.30
2022-09-13T03:28:04.034Z,12.30
2022-09-13T03:30:58.462Z,12.30
2022-09-13T03:33:53.935Z,12.20
2022-09-13T03:36:46.917Z,12.20
2022-09-13T03:39:41.501Z,12.10
2022-09-13T03:42:35.825Z,12.10
2022-09-13T03:45:28.310Z,12.30
2022-09-13T03:48:16.246Z,12.30
2022-09-13T03:51:03.626Z,12.40
2022-09-13T03:53:56.951Z,12.20
2022-09-13T03:56:44.062Z,12.30
2022-09-13T03:59:31.303Z,12.40
2022-09-13T04:02:21.087Z,12.50
2022-09-13T04:05:09.028Z,12.50
2022-09-13T04:07:56.530Z,12.50
2022-09-13T04:10:43.685Z,12.50
2022-09-13T04:13:30.929Z,12.50
2022-09-13T04:16:18.252Z,12.50
2022-09-13T04:19:07.355Z,12.50
2022-09-13T04:21:55.878Z,12.50
2022-09-13T04:24:44.232Z,12.60
2022-09-13T04:27:31.557Z,12.60
2022-09-13T04:30:18.965Z,12.60
2022-09-13T04:33:06.306Z,12.60
2022-09-13T04:36:00.613Z,12.60
2022-09-13T04:38:48.092Z,12.60
2022-09-13T04:41:35.176Z,12.60
2022-09-13T04:44:24.262Z,12.50
2022-09-13T04:47:11.631Z,12.50
2022-09-13T04:49:59.460Z,12.50
2022-09-13T04:52:48.247Z,12.60
2022-09-13T04:55:36.703Z,12.60
2022-09-13T04:58:23.933Z,12.50
2022-09-13T05:01:11.800Z,12.60
2022-09-13T05:03:59.020Z,12.60
2022-09-13T05:06:48.446Z,12.60
2022-09-13T05:09:37.157Z,12.60
2022-09-13T05:12:24.109Z,12.60
2022-09-13T05:15:12.464Z,12.60
2022-09-13T05:17:59.705Z,12.70
2022-09-13T05:20:46.906Z,12.70
2022-09-13T05:23:34.185Z,12.80
2022-09-13T05:26:23.934Z,12.80
2022-09-13T05:29:11.031Z,12.80
2022-09-13T05:31:58.682Z,12.90
2022-09-13T05:34:45.867Z,12.90
2022-09-13T05:37:33.812Z,12.90
2022-09-13T05:40:21.181Z,13.00
2022-09-13T05:43:09.571Z,13.10
2022-09-13T05:46:02.651Z,13.10
2022-09-13T05:48:50.715Z,13.20
2022-09-13T05:51:38.087Z,13.20
2022-09-13T05:54:25.477Z,13.30
2022-09-13T05:57:12.605Z,13.30
2022-09-13T06:00:01.194Z,13.30
2022-09-13T06:02:49.202Z,13.40
2022-09-13T06:05:36.578Z,13.40
2022-09-13T06:08:23.900Z,13.50
2022-09-13T06:11:12.635Z,13.40
2022-09-13T06:13:59.874Z,13.50
2022-09-13T06:16:48.233Z,13.50
2022-09-13T06:19:35.520Z,13.50
2022-09-13T06:22:22.759Z,13.50
2022-09-13T06:25:10.713Z,13.50
2022-09-13T06:27:58.086Z,13.50
2022-09-13T06:30:44.791Z,13.50
2022-09-13T06:33:33.940Z,13.50
2022-09-13T06:36:21.318Z,13.50
2022-09-13T06:39:08.502Z,13.50
2022-09-13T06:41:55.719Z,13.50
2022-09-13T06:44:54.136Z,13.60
2022-09-13T06:47:41.690Z,13.60
2022-09-13T06:50:30.353Z,13.60
2022-09-13T06:53:17.578Z,13.70
2022-09-13T06:56:06.894Z,13.70
2022-09-13T06:58:57.549Z,13.80
2022-09-13T07:01:45.250Z,13.70
2022-09-13T07:04:32.565Z,13.80
2022-09-13T07:07:21.129Z,13.80
2022-09-13T07:10:09.527Z,13.90
2022-09-13T07:12:56.653Z,14.00
2022-09-13T07:15:43.999Z,14.20
2022-09-13T07:18:31.629Z,14.30
2022-09-13T07:21:19.127Z,14.40
2022-09-13T07:24:07.989Z,14.40
2022-09-13T07:26:55.399Z,14.40
2022-09-13T07:29:42.719Z,14.40
2022-09-13T07:32:29.813Z,14.40
2022-09-13T07:35:17.342Z,14.50
2022-09-13T07:38:04.407Z,14.40
2022-09-13T07:40:58.479Z,14.40
2022-09-13T07:43:46.601Z,14.40
2022-09-13T07:46:34.190Z,14.50
2022-09-13T07:49:21.819Z,14.60
2022-09-13T07:52:09.202Z,14.60
2022-09-13T07:54:56.746Z,14.70
2022-09-13T07:57:45.278Z,14.70
2022-09-13T08:00:32.346Z,14.80
2022-09-13T08:03:19.896Z,14.80
2022-09-13T08:06:08.101Z,14.90
2022-09-13T08:08:55.873Z,15.00
2022-09-13T08:11:44.686Z,15.10
2022-09-13T08:14:32.973Z,15.10
2022-09-13T08:17:20.268Z,15.20
2022-09-13T08:20:10.452Z,15.20
2022-09-13T08:22:57.911Z,15.30
2022-09-13T08:25:45.051Z,15.20
2022-09-13T08:28:32.586Z,15.30
2022-09-13T08:31:22.538Z,15.30
2022-09-13T08:34:12.598Z,15.50
2022-09-13T08:36:59.808Z,15.80
2022-09-13T08:39:47.323Z,15.90
2022-09-13T08:42:49.237Z,16.00
2022-09-13T08:45:36.327Z,16.10
2022-09-13T08:48:33.027Z,16.10
2022-09-13T08:51:31.224Z,16.20
2022-09-13T08:54:20.242Z,16.50
2022-09-13T08:57:16.821Z,16.60
2022-09-13T09:00:17.761Z,16.90
2022-09-13T09:03:20.091Z,17.10
2022-09-13T09:06:13.584Z,17.50
2022-09-13T09:09:05.533Z,17.60
2022-09-13T09:11:59.649Z,17.70
2022-09-13T09:14:53.401Z,17.90
2022-09-13T09:17:47.622Z,17.90
2022-09-13T09:20:40.901Z,18.10
2022-09-13T09:23:32.899Z,18.30
2022-09-13T09:26:21.436Z,18.40
2022-09-13T09:29:22.904Z,18.60
2022-09-13T09:32:29.064Z,18.60
2022-09-13T09:35:27.356Z,18.70
2022-09-13T09:38:42.786Z,19.10
2022-09-13T09:41:32.528Z,19.10
2022-09-13T09:44:21.990Z,18.90
2022-09-13T09:47:16.220Z,18.80
2022-09-13T09:50:12.241Z,18.90
2022-09-13T09:53:03.202Z,19.20
2022-09-13T09:55:57.049Z,19.40
2022-09-13T09:58:45.403Z,19.30
2022-09-13T10:01:34.997Z,19.30
2022-09-13T10:04:23.624Z,19.40
2022-09-13T10:07:21.732Z,19.50
2022-09-13T10:10:22.674Z,19.90
2022-09-13T10:13:18.146Z,20.20
2022-09-13T10:16:07.601Z,20.60
2022-09-13T10:18:55.717Z,21.00
2022-09-13T10:21:42.694Z,21.20
2022-09-13T10:24:30.503Z,21.20
2022-09-13T10:27:23.789Z,21.00
2022-09-13T10:30:33.867Z,20.60
2022-09-13T10:33:28.268Z,20.60
2022-09-13T10:36:41.178Z,20.30
2022-09-13T10:39:29.478Z,20.10
2022-09-13T10:42:23.629Z,20.30
2022-09-13T10:45:23.835Z,20.40
2022-09-13T10:48:15.951Z,20.40
2022-09-13T10:51:09.061Z,20.50
2022-09-13T10:54:10.597Z,20.50
2022-09-13T10:56:57.739Z,20.40
2022-09-13T10:59:54.674Z,20.50
2022-09-13T11:03:00.085Z,20.40
2022-09-13T11:05:53.331Z,20.50
2022-09-13T11:08:48.515Z,20.30
2022-09-13T11:11:43.003Z,20.10
2022-09-13T11:14:42.781Z,20.00
2022-09-13T11:17:50.579Z,20.00
2022-09-13T11:20:48.069Z,19.80
2022-09-13T11:23:59.489Z,19.50
2022-09-13T11:26:55.970Z,19.30
2022-09-13T11:30:00.614Z,19.10
2022-09-13T11:33:05.155Z,19.10
2022-09-13T11:36:12.178Z,18.90
2022-09-13T11:39:08.982Z,18.90
2022-09-13T11:42:06.154Z,18.80
2022-09-13T11:45:22.430Z,18.80
2022-09-13T11:48:43.519Z,18.80
2022-09-13T11:51:42.043Z,18.80
2022-09-13T11:54:42.977Z,18.90
2022-09-13T11:57:34.097Z,18.80
2022-09-13T12:00:23.943Z,18.80
2022-09-13T12:03:22.146Z,18.70
2022-09-13T12:06:14.917Z,18.70
2022-09-13T12:09:07.179Z,18.60
2022-09-13T12:11:59.448Z,18.80
2022-09-13T12:14:52.784Z,18.90
2022-09-13T12:17:44.751Z,18.90
2022-09-13T12:20:36.155Z,18.90
2022-09-13T12:23:32.225Z,19.00
2022-09-13T12:26:25.033Z,19.00
2022-09-13T12:29:17.626Z,19.20
2022-09-13T12:32:06.673Z,19.30
2022-09-13T12:34:59.815Z,19.30
2022-09-13T12:38:08.779Z,19.10
2022-09-13T12:41:13.243Z,18.90
2022-09-13T12:44:17.911Z,18.80
2022-09-13T12:47:53.329Z,18.70
2022-09-13T12:50:55.610Z,18.80
2022-09-13T12:54:20.060Z,18.90
2022-09-13T12:57:28.168Z,19.00
2022-09-13T13:00:23.382Z,19.00
2022-09-13T13:03:16.752Z,19.10
2022-09-13T13:06:21.128Z,19.10
2022-09-13T13:09:28.493Z,19.00
2022-09-13T13:12:30.081Z,19.00
2022-09-13T13:15:51.023Z,19.10
2022-09-13T13:18:49.333Z,19.30
2022-09-13T13:21:39.030Z,19.40
2022-09-13T13:24:45.056Z,19.40
2022-09-13T13:27:48.457Z,19.40
2022-09-13T13:30:56.274Z,19.40
2022-09-13T13:33:53.945Z,19.40
2022-09-13T13:36:47.814Z,19.40
2022-09-13T13:39:42.200Z,19.40
2022-09-13T13:42:35.269Z,19.40
2022-09-13T13:45:26.216Z,19.30
2022-09-13T13:48:16.190Z,19.40
2022-09-13T13:51:25.529Z,19.40
2022-09-13T13:54:31.225Z,19.50
2022-09-13T13:57:25.280Z,19.60
2022-09-13T14:00:15.300Z,19.70
2022-09-13T14:03:13.314Z,19.80
2022-09-13T14:06:10.933Z,20.00
2022-09-13T14:09:13.564Z,19.80
2022-09-13T14:12:31.372Z,19.90
2022-09-13T14:15:33.927Z,19.80
2022-09-13T14:18:32.759Z,19.90
2022-09-13T14:21:23.197Z,19.90
2022-09-13T14:24:18.897Z,20.00
2022-09-13T14:27:09.458Z,20.00
2022-09-13T14:29:59.196Z,20.00
2022-09-13T14:32:48.552Z,20.00
2022-09-13T14:35:37.837Z,20.10
2022-09-13T14:38:30.930Z,20.00
2022-09-13T14:41:21.641Z,19.90
2022-09-13T14:44:27.761Z,19.90
2022-09-13T14:47:20.948Z,19.80
2022-09-13T14:50:15.011Z,19.90
2022-09-13T14:53:04.572Z,19.90
2022-09-13T14:55:54.873Z,19.90
2022-09-13T14:58:47.693Z,19.90
2022-09-13T15:01:36.616Z,19.90
2022-09-13T15:04:24.523Z,19.90
2022-09-13T15:07:21.943Z,20.00
2022-09-13T15:10:22.068Z,20.00
2022-09-13T15:13:11.414Z,20.00
2022-09-13T15:16:00.445Z,20.00
2022-09-13T15:18:47.520Z,20.10
2022-09-13T15:21:37.321Z,20.00
2022-09-13T15:24:29.407Z,20.00
2022-09-13T15:27:28.992Z,20.10
2022-09-13T15:30:25.893Z,20.10
2022-09-13T15:33:24.406Z,20.10
2022-09-13T15:36:17.524Z,20.10
2022-09-13T15:39:16.792Z,20.10
2022-09-13T15:42:04.107Z,20.00
2022-09-13T15:44:51.435Z,20.00
2022-09-13T15:47:38.943Z,20.00
2022-09-13T15:50:31.050Z,20.00
2022-09-13T15:53:18.669Z,20.00
2022-09-13T15:56:06.769Z,20.00
2022-09-13T15:58:54.179Z,20.00
2022-09-13T16:01:41.718Z,19.90
2022-09-13T16:04:28.609Z,19.90
2022-09-13T16:07:18.025Z,19.70
2022-09-13T16:10:05.338Z,19.60
2022-09-13T16:12:52.517Z,19.70
2022-09-13T16:15:39.958Z,19.60
2022-09-13T16:18:27.533Z,19.60
2022-09-13T16:21:15.292Z,19.50
2022-09-13T16:24:04.320Z,19.50
2022-09-13T16:26:51.105Z,19.40
2022-09-13T16:29:38.429Z,19.40
2022-09-13T16:32:25.835Z,19.40
2022-09-13T16:35:14.611Z,19.30
2022-09-13T16:38:01.531Z,19.20
2022-09-13T16:40:50.351Z,19.20
2022-09-13T16:43:37.530Z,19.10
2022-09-13T16:46:25.222Z,19.10
2022-09-13T16:49:12.341Z,19.10
2022-09-13T16:52:01.233Z,19.10
2022-09-13T16:54:49.398Z,19.10
2022-09-13T16:57:38.314Z,19.00
2022-09-13T17:00:28.531Z,19.00
2022-09-13T17:03:15.778Z,19.00
2022-09-13T17:06:04.811Z,19.00
2022-09-13T17:08:53.657Z,18.90
2022-09-13T17:11:44.263Z,18.90
2022-09-13T17:14:33.377Z,18.80
2022-09-13T17:17:20.527Z,18.80
2022-09-13T17:20:11.025Z,18.80
2022-09-13T17:22:58.629Z,18.70
2022-09-13T17:25:49.221Z,18.60
2022-09-13T17:28:36.856Z,18.60
2022-09-13T17:31:25.259Z,18.50
2022-09-13T17:34:13.953Z,18.50
2022-09-13T17:37:03.283Z,18.50
2022-09-13T17:41:05.437Z,18.40
2022-09-13T17:43:53.075Z,18.30
2022-09-13T17:46:41.673Z,18.20
2022-09-13T17:49:28.898Z,18.20
2022-09-13T17:52:16.142Z,18.20
2022-09-13T17:55:03.729Z,18.20
2022-09-13T17:57:58.553Z,18.10
2022-09-13T18:00:46.393Z,18.00
2022-09-13T18:03:36.354Z,18.00
2022-09-13T18:06:23.760Z,18.00
2022-09-13T18:09:11.858Z,17.90
2022-09-13T18:11:58.882Z,17.90
2022-09-13T18:14:46.133Z,17.90
2022-09-13T18:17:32.995Z,17.90
2022-09-13T18:20:21.827Z,17.90
2022-09-13T18:23:09.922Z,17.80
2022-09-13T18:26:02.097Z,17.70
2022-09-13T18:33:20.855Z,17.70
2022-09-13T18:36:12.766Z,17.60
2022-09-13T18:39:04.871Z,17.60
2022-09-13T18:41:51.884Z,17.50
2022-09-13T18:44:39.064Z,17.50
2022-09-13T18:47:26.294Z,17.50
2022-09-13T18:50:17.992Z,17.50
2022-09-13T18:53:08.030Z,17.40
2022-09-13T18:55:56.036Z,17.40
2022-09-13T18:58:44.624Z,17.30
2022-09-13T19:01:33.881Z,17.40
2022-09-13T19:04:21.825Z,17.30
2022-09-13T19:07:09.269Z,17.20
2022-09-13T19:09:57.993Z,17.20
2022-09-13T19:12:45.166Z,17.20
2022-09-13T19:15:32.453Z,17.20
2022-09-13T19:22:46.002Z,17.20
2022-09-13T19:25:36.718Z,17.10
2022-09-13T19:28:24.159Z,17.00
2022-09-13T19:31:12.698Z,17.00
2022-09-13T19:34:02.046Z,17.00
2022-09-13T19:36:52.142Z,16.90
2022-09-13T19:39:39.773Z,17.00
2022-09-13T19:42:28.115Z,16.90
2022-09-13T19:45:15.093Z,16.80
2022-09-13T19:48:37.157Z,16.80
2022-09-13T19:51:12.417Z,16.80
2022-09-13T19:54:01.179Z,16.80
2022-09-13T19:56:48.318Z,16.70
2022-09-13T19:59:36.882Z,16.70
2022-09-13T20:02:24.027Z,16.70
2022-09-13T20:05:11.398Z,16.70
2022-09-13T20:07:58.868Z,16.70
2022-09-13T20:10:45.884Z,16.60
2022-09-13T20:13:33.338Z,16.60
2022-09-13T20:16:25.469Z,16.60
2022-09-13T20:20:03.375Z,16.50
2022-09-13T20:22:51.068Z,16.50
2022-09-13T20:25:41.620Z,16.40
2022-09-13T20:28:28.967Z,16.30
2022-09-13T20:31:16.960Z,16.30
2022-09-13T20:34:07.743Z,16.30
2022-09-13T20:36:55.059Z,16.30
2022-09-13T20:39:42.100Z,16.30
2022-09-13T20:42:29.539Z,16.30
2022-09-13T20:45:16.712Z,16.20
2022-09-13T20:48:04.094Z,16.20
2022-09-13T20:50:58.455Z,16.20
2022-09-13T20:53:45.830Z,16.10
2022-09-13T20:56:34.509Z,16.10
2022-09-13T20:59:22.680Z,16.10
2022-09-13T21:02:10.457Z,16.10
2022-09-13T21:04:57.607Z,16.10
2022-09-13T21:08:03.881Z,16.10
2022-09-13T21:10:57.457Z,16.10
2022-09-13T21:13:47.163Z,16.20
2022-09-13T21:21:50.546Z,16.20
2022-09-13T21:25:52.419Z,16.00
2022-09-13T21:28:42.681Z,16.00
2022-09-13T21:31:31.628Z,16.00
2022-09-13T21:34:19.811Z,15.90
2022-09-13T21:37:07.174Z,15.80
2022-09-13T21:39:54.159Z,15.80
2022-09-13T21:42:41.161Z,15.80
2022-09-13T21:45:29.988Z,15.80
2022-09-13T21:48:17.118Z,15.80
2022-09-13T21:51:06.942Z,15.80
2022-09-13T21:53:58.767Z,15.80
2022-09-13T21:56:53.415Z,15.70
2022-09-13T21:59:40.260Z,15.70
2022-09-13T22:02:28.973Z,15.70
2022-09-13T22:05:16.425Z,15.70
2022-09-13T22:08:03.976Z,15.70
2022-09-13T22:10:51.268Z,15.60
2022-09-13T22:13:45.322Z,15.60
2022-09-13T22:16:35.139Z,15.60
2022-09-13T22:19:26.420Z,15.60
2022-09-13T22:22:13.776Z,15.60
2022-09-13T22:25:01.073Z,15.60
2022-09-13T22:27:48.350Z,15.60
2022-09-13T22:30:36.319Z,15.50
2022-09-13T22:33:23.587Z,15.50
2022-09-13T22:36:14.801Z,15.40
2022-09-13T22:39:01.827Z,15.40
2022-09-13T22:41:49.095Z,15.40
2022-09-13T22:44:36.418Z,15.40
2022-09-13T22:47:23.703Z,15.40
2022-09-13T22:54:38.698Z,15.20
2022-09-13T22:57:26.061Z,15.10
2022-09-13T23:00:14.325Z,15.10
2022-09-13T23:03:01.351Z,15.00
2022-09-13T23:05:52.583Z,14.90
2022-09-13T23:08:40.998Z,14.90
2022-09-13T23:11:31.514Z,14.80
2022-09-13T23:14:20.743Z,14.70
2022-09-13T23:21:36.906Z,14.60
2022-09-13T23:24:31.510Z,14.50
2022-09-13T23:27:22.633Z,14.50
2022-09-13T23:30:10.757Z,14.50
2022-09-13T23:33:08.158Z,14.40
2022-09-13T23:35:58.481Z,14.40
2022-09-13T23:38:48.312Z,14.40
2022-09-13T23:41:35.960Z,14.40
2022-09-13T23:44:24.252Z,14.40
2022-09-13T23:47:11.548Z,14.40
2022-09-13T23:49:58.922Z,14.40
2022-09-13T23:52:46.195Z,14.40
2022-09-13T23:55:33.222Z,14.40
2022-09-13T23:58:20.249Z,14.40
